Alto Anahuac, Mexico

11:05 PM CST on December 03, 2016 (GMT -0600)
Laredo International | | Change Station

Elev 509 ft 27.54 °N, 99.46 °W | Updated 9 minutes ago

Light Rain
Light Rain Mist
56 °F
Feels Like 56 °F
N
8
Wind Variable Wind from NNW

Today
High -- | Low -- °F
--% Chance of Precip.
Yesterday
High -- | Low -- °F
Precip. -- in
Pressure 29.93 in
Visibility 2.5 miles
Clouds Overcast 500 ft
Dew Point 55 °F
Humidity 97%
Rainfall 0.16 in
Snow Depth Not available.
7:14 AM 5:44 PM
Waxing Crescent, 19% visible
METAR KLRD 040456Z AUTO 33007KT 2 1/2SM -RA BR OVC005 13/13 A2990 RMK AO2 RAB25 SLP135 P0000 T01330128 $
Pressure 29.93 in
Visibility 2.5 miles
Clouds Overcast 500 ft
Dew Point 55 °F
Humidity 97%
Rainfall 0.16 in
Snow Depth Not available.
7:14 AM 5:44 PM
Waxing Crescent, 19% visible
METAR KLRD 040456Z AUTO 33007KT 2 1/2SM -RA BR OVC005 13/13 A2990 RMK AO2 RAB25 SLP135 P0000 T01330128 $

10-Day Weather Forecast

No radar image for this location.
×

Almanac

Astronomy

Dec. 03, 2016 Rise Set
Actual Time
Civil Twilight
Nautical Twilight
Astronomical Twilight
Moon
Length of Visible Light
Length of Day
Tomorrow will be .
, % of the Moon is Illuminated

Today's Extremes

Country Highs Country Lows

Community

WunderPhotos

Upload Photos

1,955,584 photos uploaded!

WunderBlog® & News

Nearby

Air Quality

  Air Quality AQ Index Pollutant
Not available.

Snow Depth

Station Depth Elevation

Earthquake Activity

City Distance Mag. Time & Date
Minimum magnitude displayed is 2.5.

Coastal Water Temperatures

Place Temperature

Stations

Nearby Weather Stations

Station Location Temp. Windchill Dew Point Humidity Wind Precip. Elev Updated Type